createdAt,value
2019-05-02T00:00:55.259Z,29.43
2019-05-02T00:03:24.820Z,28.53
2019-05-02T00:05:51.895Z,27.13
2019-05-02T00:08:19.919Z,31.03
2019-05-02T00:10:47.636Z,32.20
2019-05-02T00:13:14.895Z,30.37
2019-05-02T00:15:41.735Z,32.27
2019-05-02T00:18:08.936Z,30.87
2019-05-02T00:20:35.932Z,32.53
2019-05-02T00:23:03.099Z,33.83
2019-05-02T00:25:30.250Z,29.43
2019-05-02T00:27:57.360Z,32.80
2019-05-02T00:30:24.523Z,31.60
2019-05-02T00:32:53.161Z,29.03
2019-05-02T00:35:19.932Z,28.27
2019-05-02T00:37:46.825Z,28.47
2019-05-02T00:40:13.803Z,26.17
2019-05-02T00:42:40.763Z,29.13
2019-05-02T00:45:07.913Z,30.40
2019-05-02T00:47:47.929Z,30.30
2019-05-02T00:50:15.494Z,29.40
2019-05-02T00:52:42.256Z,29.20
2019-05-02T00:55:09.281Z,32.83
2019-05-02T00:57:36.022Z,34.20
2019-05-02T01:00:04.133Z,27.90
2019-05-02T01:02:40.577Z,29.50
2019-05-02T01:05:07.582Z,32.60
2019-05-02T01:07:34.527Z,32.43
2019-05-02T01:10:01.583Z,29.00
2019-05-02T01:12:28.462Z,29.73
2019-05-02T01:14:55.359Z,30.20
2019-05-02T01:17:26.057Z,32.53
2019-05-02T01:19:51.622Z,31.43
2019-05-02T01:22:19.336Z,33.63
2019-05-02T01:24:46.055Z,29.27
2019-05-02T01:27:19.619Z,27.20
2019-05-02T01:29:52.455Z,30.40
2019-05-02T01:32:36.459Z,31.53
2019-05-02T01:35:12.256Z,37.00
2019-05-02T01:38:16.575Z,36.77
2019-05-02T01:40:48.175Z,33.73
2019-05-02T01:43:24.067Z,31.80
2019-05-02T01:45:51.218Z,32.73
2019-05-02T01:48:18.235Z,32.47
2019-05-02T01:50:45.260Z,30.70
2019-05-02T01:53:12.147Z,35.63
2019-05-02T01:55:38.880Z,39.07
2019-05-02T01:58:05.831Z,30.87
2019-05-02T02:00:32.601Z,37.03
2019-05-02T02:03:04.083Z,34.90
2019-05-02T02:05:32.272Z,32.80
2019-05-02T02:07:57.516Z,33.17
2019-05-02T02:10:24.524Z,34.57
2019-05-02T02:13:03.375Z,35.30
2019-05-02T02:15:20.184Z,40.13
2019-05-02T02:17:51.515Z,30.07
2019-05-02T02:20:18.032Z,36.70
2019-05-02T02:22:55.019Z,32.00
2019-05-02T02:25:36.245Z,31.73
2019-05-02T02:28:03.350Z,37.47
2019-05-02T02:30:30.195Z,34.97
2019-05-02T02:33:00.922Z,33.17
2019-05-02T02:35:25.676Z,37.23
2019-05-02T02:37:55.427Z,43.70
2019-05-02T02:40:21.414Z,37.03
2019-05-02T02:42:48.579Z,41.73
2019-05-02T02:45:32.331Z,38.43
2019-05-02T02:48:00.009Z,34.23
2019-05-02T02:50:27.760Z,36.53
2019-05-02T02:52:54.484Z,41.50
2019-05-02T02:55:22.115Z,37.73
2019-05-02T02:57:50.204Z,37.17
2019-05-02T03:00:17.250Z,39.73
2019-05-02T03:02:48.517Z,38.10
2019-05-02T03:05:18.524Z,39.43
2019-05-02T03:07:41.965Z,39.53
2019-05-02T03:10:09.127Z,42.97
2019-05-02T03:13:08.047Z,40.20
2019-05-02T03:15:39.072Z,44.83
2019-05-02T03:18:06.324Z,44.87
2019-05-02T03:20:39.860Z,43.00
2019-05-02T03:23:02.064Z,39.30
2019-05-02T03:25:49.228Z,48.93
2019-05-02T03:27:58.560Z,45.47
2019-05-02T03:30:35.404Z,49.13
2019-05-02T03:33:05.208Z,45.20
2019-05-02T03:35:40.223Z,40.73
2019-05-02T03:37:53.170Z,40.87
2019-05-02T03:40:20.363Z,44.27
2019-05-02T03:42:47.733Z,43.00
2019-05-02T03:45:15.060Z,46.43
2019-05-02T03:47:43.460Z,43.83
2019-05-02T03:50:11.022Z,49.87
2019-05-02T03:52:43.547Z,47.97
2019-05-02T03:55:07.098Z,46.20
2019-05-02T03:57:36.170Z,49.23
2019-05-02T04:00:04.054Z,46.60
2019-05-02T04:02:31.028Z,47.23
2019-05-02T04:05:00.675Z,51.30
2019-05-02T04:07:27.456Z,49.90
2019-05-02T04:09:55.947Z,51.77
2019-05-02T04:12:23.509Z,52.03
2019-05-02T04:14:55.565Z,55.53
2019-05-02T04:17:20.540Z,51.63
2019-05-02T04:19:48.680Z,56.30
2019-05-02T04:22:15.931Z,50.17
2019-05-02T04:24:47.779Z,54.60
2019-05-02T04:27:12.528Z,56.17
2019-05-02T04:29:39.688Z,52.80
2019-05-02T04:32:11.683Z,57.87
2019-05-02T04:34:35.478Z,55.07
2019-05-02T04:37:04.024Z,63.03
2019-05-02T04:39:31.311Z,63.60
2019-05-02T04:41:59.021Z,72.37
2019-05-02T04:44:29.876Z,74.03
2019-05-02T04:47:02.715Z,76.17
2019-05-02T04:49:29.754Z,77.17
2019-05-02T04:52:01.615Z,91.43
2019-05-02T04:54:28.265Z,98.00
2019-05-02T04:56:55.211Z,98.30
2019-05-02T04:59:23.040Z,98.40
2019-05-02T05:01:54.894Z,94.83
2019-05-02T05:04:18.065Z,96.77
2019-05-02T05:06:52.516Z,105.03
2019-05-02T05:09:15.055Z,98.20
2019-05-02T05:11:42.155Z,107.37
2019-05-02T05:14:10.042Z,105.07
2019-05-02T05:16:40.002Z,106.67
2019-05-02T05:19:07.622Z,101.13
2019-05-02T05:21:34.617Z,101.73
2019-05-02T05:24:21.241Z,102.97
2019-05-02T05:26:51.716Z,101.40
2019-05-02T05:29:23.114Z,98.93
2019-05-02T05:31:48.287Z,81.60
2019-05-02T05:34:17.391Z,80.30
2019-05-02T05:36:44.264Z,72.13
2019-05-02T05:39:11.791Z,80.47
2019-05-02T05:41:42.580Z,70.60
2019-05-02T05:44:07.871Z,67.83
2019-05-02T05:46:38.728Z,65.70
2019-05-02T05:49:03.455Z,63.00
2019-05-02T05:51:30.315Z,59.10
2019-05-02T05:54:02.792Z,59.93
2019-05-02T05:56:27.915Z,60.50
2019-05-02T05:58:58.858Z,59.43
2019-05-02T06:01:26.137Z,58.67
2019-05-02T06:03:53.108Z,60.57
2019-05-02T06:06:23.369Z,54.77
2019-05-02T06:08:49.278Z,54.73
2019-05-02T06:11:20.138Z,53.93
2019-05-02T06:13:48.949Z,59.43
2019-05-02T06:16:16.540Z,61.87
2019-05-02T06:18:43.704Z,66.70
2019-05-02T06:21:10.819Z,70.03
2019-05-02T06:23:41.282Z,61.37
2019-05-02T06:26:12.697Z,71.50
2019-05-02T06:28:36.487Z,72.00
2019-05-02T06:31:07.346Z,72.50
2019-05-02T06:33:32.955Z,76.00
2019-05-02T06:36:01.435Z,74.93
2019-05-02T06:38:28.567Z,71.97
2019-05-02T06:40:55.567Z,73.73
2019-05-02T06:43:22.517Z,75.80
2019-05-02T06:45:49.287Z,75.70
2019-05-02T06:48:17.633Z,66.53
2019-05-02T06:50:44.877Z,85.05
2019-05-02T06:53:11.743Z,86.57
2019-05-02T06:55:38.838Z,98.27
2019-05-02T06:58:08.185Z,96.08
2019-05-02T07:00:38.439Z,100.10
2019-05-02T07:03:04.921Z,98.22
2019-05-02T07:05:32.529Z,95.17
2019-05-02T07:07:59.308Z,102.15
2019-05-02T07:10:26.703Z,96.40
2019-05-02T07:13:09.824Z,95.70
2019-05-02T07:15:37.982Z,98.85
2019-05-02T07:18:10.566Z,90.92
2019-05-02T07:20:35.324Z,100.27
2019-05-02T07:23:03.869Z,100.78
2019-05-02T07:25:30.703Z,99.62
2019-05-02T07:27:57.454Z,92.78
2019-05-02T07:30:24.344Z,99.87
2019-05-02T07:32:51.088Z,88.10
2019-05-02T07:35:19.362Z,97.85
2019-05-02T07:37:48.876Z,96.37
2019-05-02T07:40:16.811Z,92.97
2019-05-02T07:42:44.931Z,92.67
2019-05-02T07:45:12.283Z,97.30
2019-05-02T07:47:40.263Z,90.75
2019-05-02T07:50:10.354Z,87.00
2019-05-02T07:52:37.023Z,92.08
2019-05-02T07:55:06.649Z,85.35
2019-05-02T07:57:32.916Z,86.90
2019-05-02T08:00:00.694Z,83.60
2019-05-02T08:02:28.654Z,79.75
2019-05-02T08:04:55.686Z,84.58
2019-05-02T08:07:25.696Z,77.08
2019-05-02T08:09:51.511Z,78.85
2019-05-02T08:12:18.552Z,76.47
2019-05-02T08:14:45.428Z,75.78
2019-05-02T08:17:17.285Z,76.37
2019-05-02T08:19:41.781Z,70.62
2019-05-02T08:22:13.808Z,74.80
2019-05-02T08:24:39.346Z,80.32
2019-05-02T08:27:41.026Z,77.47
2019-05-02T08:30:18.202Z,80.67
2019-05-02T08:32:45.117Z,124.97
2019-05-02T08:35:11.983Z,91.05
2019-05-02T08:37:41.065Z,119.10
2019-05-02T08:40:10.602Z,90.32
2019-05-02T08:42:37.066Z,84.05
2019-05-02T08:45:04.792Z,77.67
2019-05-02T08:47:31.799Z,81.40
2019-05-02T08:49:58.759Z,79.85
2019-05-02T08:52:25.504Z,78.17
2019-05-02T08:54:52.354Z,80.57
2019-05-02T08:57:19.450Z,81.45
2019-05-02T08:59:46.316Z,77.95
2019-05-02T09:02:13.083Z,81.00
2019-05-02T09:04:39.983Z,74.80
2019-05-02T09:07:06.878Z,73.83
2019-05-02T09:09:33.903Z,67.08
2019-05-02T09:12:09.777Z,63.90
2019-05-02T09:14:29.300Z,65.55
2019-05-02T09:17:00.235Z,62.05
2019-05-02T09:19:26.485Z,54.55
2019-05-02T09:21:53.769Z,64.70
2019-05-02T09:24:23.206Z,61.45
2019-05-02T09:26:49.359Z,66.25
2019-05-02T09:29:16.227Z,61.75
2019-05-02T09:31:46.098Z,63.28
2019-05-02T09:34:11.866Z,63.35
2019-05-02T09:36:38.673Z,56.50
2019-05-02T09:39:06.400Z,67.40
2019-05-02T09:41:36.267Z,65.97
2019-05-02T09:44:02.889Z,63.28
2019-05-02T09:46:29.799Z,58.70
2019-05-02T09:48:56.994Z,66.95
2019-05-02T09:51:25.291Z,59.58
2019-05-02T09:53:52.442Z,61.42
2019-05-02T09:56:19.494Z,70.55
2019-05-02T09:58:49.175Z,65.83
2019-05-02T10:01:24.739Z,62.95
2019-05-02T10:03:51.932Z,66.70
2019-05-02T10:06:19.127Z,62.10
2019-05-02T10:08:46.730Z,62.78
2019-05-02T10:11:17.067Z,57.08
2019-05-02T10:13:42.571Z,57.62
2019-05-02T10:16:09.760Z,56.55
2019-05-02T10:18:36.767Z,53.63
2019-05-02T10:21:07.717Z,54.23
2019-05-02T10:23:32.781Z,54.40
2019-05-02T10:25:59.715Z,50.92
2019-05-02T10:28:26.683Z,47.10
2019-05-02T10:30:56.676Z,40.05
2019-05-02T10:33:22.668Z,47.13
2019-05-02T10:35:52.266Z,46.73
2019-05-02T10:38:19.523Z,41.68
2019-05-02T10:40:48.552Z,43.33
2019-05-02T10:43:15.533Z,37.90
2019-05-02T10:45:47.486Z,42.13
2019-05-02T10:48:24.977Z,42.13
2019-05-02T10:50:47.612Z,40.20
2019-05-02T10:53:15.759Z,43.48
2019-05-02T10:55:43.123Z,40.23
2019-05-02T10:58:12.365Z,34.98
2019-05-02T11:00:39.244Z,39.10
2019-05-02T11:03:14.982Z,38.80
2019-05-02T11:05:43.709Z,37.45
2019-05-02T11:08:11.998Z,37.75
2019-05-02T11:10:38.929Z,35.90
2019-05-02T11:13:14.158Z,33.90
2019-05-02T11:16:05.128Z,37.98
2019-05-02T11:18:48.080Z,33.67
2019-05-02T11:21:15.053Z,30.90
2019-05-02T11:23:42.037Z,32.85
2019-05-02T11:26:08.894Z,26.15
2019-05-02T11:28:35.843Z,36.45
2019-05-02T11:31:06.894Z,33.50
2019-05-02T11:33:32.552Z,31.97
2019-05-02T11:35:59.547Z,32.15
2019-05-02T11:38:48.092Z,34.43
2019-05-02T11:40:55.111Z,32.08
2019-05-02T11:43:22.422Z,38.15
2019-05-02T11:45:49.335Z,34.90
2019-05-02T11:48:19.815Z,34.00
2019-05-02T11:50:46.796Z,30.85
2019-05-02T11:53:24.878Z,31.33
2019-05-02T11:55:43.837Z,26.00
2019-05-02T11:58:12.538Z,30.72
2019-05-02T12:00:43.995Z,25.92
2019-05-02T12:03:35.546Z,29.52
2019-05-02T12:05:58.544Z,31.93
2019-05-02T12:08:25.419Z,29.35
2019-05-02T12:10:52.263Z,33.92
2019-05-02T12:13:19.103Z,25.02
2019-05-02T12:15:46.313Z,26.48
2019-05-02T12:18:13.576Z,24.70
2019-05-02T12:20:42.336Z,22.73
2019-05-02T12:23:09.287Z,24.23
2019-05-02T12:25:36.266Z,24.32
2019-05-02T12:28:03.275Z,26.82
2019-05-02T12:30:34.230Z,26.05
2019-05-02T12:32:58.983Z,23.12
2019-05-02T12:35:25.847Z,20.48
2019-05-02T12:37:55.170Z,19.82
2019-05-02T12:40:21.769Z,18.95
2019-05-02T12:42:48.776Z,19.77
2019-05-02T12:45:15.723Z,21.82
2019-05-02T12:47:42.948Z,20.65
2019-05-02T12:50:12.092Z,22.45
2019-05-02T12:52:38.991Z,17.85
2019-05-02T12:55:06.098Z,24.45
2019-05-02T12:57:32.867Z,23.00
2019-05-02T13:00:01.930Z,25.75
2019-05-02T13:02:38.707Z,24.02
2019-05-02T13:05:05.712Z,23.20
2019-05-02T13:07:32.461Z,21.07
2019-05-02T13:09:59.417Z,20.32
2019-05-02T13:12:29.483Z,25.02
2019-05-02T13:14:56.471Z,24.27
2019-05-02T13:17:23.345Z,26.07
2019-05-02T13:19:57.101Z,27.20
2019-05-02T13:22:37.531Z,24.00
2019-05-02T13:25:10.541Z,28.12
2019-05-02T13:27:47.105Z,26.77
2019-05-02T13:30:12.288Z,22.80
2019-05-02T13:32:42.683Z,25.23
2019-05-02T13:35:15.803Z,24.30
2019-05-02T13:37:43.795Z,25.23
2019-05-02T13:40:32.187Z,23.45
2019-05-02T13:43:01.715Z,21.25
2019-05-02T13:45:43.609Z,23.85
2019-05-02T13:48:12.228Z,23.62
2019-05-02T13:50:39.251Z,22.90
2019-05-02T13:53:06.209Z,21.10
2019-05-02T13:55:38.056Z,18.32
2019-05-02T13:58:04.915Z,19.95
2019-05-02T14:00:39.107Z,22.13
2019-05-02T14:03:06.215Z,19.92
2019-05-02T14:05:33.343Z,21.12
2019-05-02T14:08:22.604Z,20.12
2019-05-02T14:10:53.016Z,18.92
2019-05-02T14:13:19.875Z,18.07
2019-05-02T14:15:46.675Z,23.80
2019-05-02T14:18:13.628Z,20.95
2019-05-02T14:20:42.632Z,20.15
2019-05-02T14:23:09.243Z,27.40
2019-05-02T14:25:36.240Z,29.10
2019-05-02T14:28:12.891Z,30.23
2019-05-02T14:30:45.957Z,31.17
2019-05-02T14:33:23.196Z,27.98
2019-05-02T14:35:45.941Z,26.52
2019-05-02T14:38:14.036Z,25.70
2019-05-02T14:41:03.020Z,25.68
2019-05-02T14:43:52.564Z,31.95
2019-05-02T14:46:21.990Z,29.55
2019-05-02T14:48:52.086Z,29.02
2019-05-02T14:51:22.872Z,28.90
2019-05-02T14:53:48.342Z,27.80
2019-05-02T14:56:23.793Z,27.52
2019-05-02T14:58:52.643Z,25.30
2019-05-02T15:01:22.596Z,25.05
2019-05-02T15:03:48.460Z,34.15
2019-05-02T15:06:15.436Z,26.68
2019-05-02T15:08:44.730Z,27.93
2019-05-02T15:11:12.554Z,23.57
2019-05-02T15:13:41.091Z,26.50
2019-05-02T15:16:10.455Z,30.85
2019-05-02T15:18:37.402Z,28.38
2019-05-02T15:21:12.225Z,27.22
2019-05-02T15:23:33.306Z,27.67
2019-05-02T15:26:00.063Z,30.15
2019-05-02T15:28:30.311Z,24.77
2019-05-02T15:31:09.075Z,29.05
2019-05-02T15:33:42.464Z,21.50
2019-05-02T15:36:09.576Z,28.83
2019-05-02T15:38:37.139Z,30.10
2019-05-02T15:41:09.448Z,25.75
2019-05-02T15:43:34.087Z,24.70
2019-05-02T15:46:02.016Z,28.20
2019-05-02T15:48:29.227Z,28.10
2019-05-02T15:51:00.014Z,28.02
2019-05-02T15:53:49.702Z,25.57
2019-05-02T15:56:19.631Z,25.55
2019-05-02T15:58:43.184Z,24.05
2019-05-02T16:01:29.592Z,25.17
2019-05-02T16:03:57.627Z,26.15
2019-05-02T16:06:30.555Z,28.32
2019-05-02T16:08:53.363Z,26.05
2019-05-02T16:11:20.511Z,26.52
2019-05-02T16:13:52.773Z,24.05
2019-05-02T16:16:19.005Z,20.23
2019-05-02T16:18:46.091Z,28.83
2019-05-02T16:21:38.330Z,28.10
2019-05-02T16:24:22.960Z,21.52
2019-05-02T16:26:52.992Z,23.77
2019-05-02T16:29:26.868Z,22.22
2019-05-02T16:31:59.817Z,19.42
2019-05-02T16:34:27.351Z,20.02
2019-05-02T16:37:13.288Z,22.27
2019-05-02T16:39:36.559Z,19.70
2019-05-02T16:42:04.726Z,18.07
2019-05-02T16:44:32.228Z,19.70
2019-05-02T16:46:59.289Z,19.37
2019-05-02T16:49:26.010Z,22.50
2019-05-02T16:51:52.987Z,18.03
2019-05-02T16:54:22.299Z,16.75
2019-05-02T16:56:48.823Z,16.10
2019-05-02T16:59:16.934Z,17.23
2019-05-02T17:01:44.596Z,16.03
2019-05-02T17:04:12.939Z,19.40
2019-05-02T17:06:40.029Z,15.87
2019-05-02T17:09:33.127Z,15.50
2019-05-02T17:11:57.571Z,14.00
2019-05-02T17:14:24.559Z,18.17
2019-05-02T17:16:55.699Z,16.00
2019-05-02T17:19:21.614Z,14.03
2019-05-02T17:21:53.795Z,12.60
2019-05-02T17:24:17.305Z,14.13
2019-05-02T17:26:45.887Z,14.37
2019-05-02T17:29:16.522Z,13.97
2019-05-02T17:31:42.741Z,11.60
2019-05-02T17:34:11.917Z,14.07
2019-05-02T17:36:38.436Z,14.70
2019-05-02T17:39:08.338Z,14.13
2019-05-02T17:41:37.059Z,14.17
2019-05-02T17:44:04.188Z,17.20
2019-05-02T17:46:31.063Z,14.00
2019-05-02T17:48:57.908Z,12.57
2019-05-02T17:51:33.849Z,14.03
2019-05-02T17:53:59.431Z,13.23
2019-05-02T17:56:26.293Z,11.57
2019-05-02T17:58:57.885Z,13.07
2019-05-02T18:01:35.039Z,15.70
2019-05-02T18:04:01.981Z,12.93
2019-05-02T18:06:32.855Z,13.57
2019-05-02T18:08:57.875Z,14.10
2019-05-02T18:11:24.655Z,14.13
2019-05-02T18:13:51.819Z,13.33
2019-05-02T18:16:19.051Z,13.90
2019-05-02T18:18:46.883Z,15.73
2019-05-02T18:21:17.248Z,17.83
2019-05-02T18:23:42.847Z,16.97
2019-05-02T18:26:11.475Z,13.80
2019-05-02T18:28:47.029Z,15.13
2019-05-02T18:31:07.438Z,17.00
2019-05-02T18:33:35.836Z,16.90
2019-05-02T18:36:03.487Z,17.20
2019-05-02T18:38:32.128Z,19.10
2019-05-02T18:41:00.266Z,19.33
2019-05-02T18:43:27.939Z,17.63
2019-05-02T18:45:58.179Z,23.03
2019-05-02T18:48:23.656Z,21.93
2019-05-02T18:50:52.427Z,19.47
2019-05-02T18:53:24.329Z,20.63
2019-05-02T18:55:48.227Z,21.93
2019-05-02T18:58:14.955Z,21.60
2019-05-02T19:00:42.133Z,21.17
2019-05-02T19:03:13.275Z,20.00
2019-05-02T19:05:39.040Z,18.77
2019-05-02T19:08:06.423Z,21.27
2019-05-02T19:10:37.070Z,23.80
2019-05-02T19:13:05.902Z,22.47
2019-05-02T19:15:34.519Z,24.63
2019-05-02T19:18:02.638Z,24.43
2019-05-02T19:21:03.696Z,24.50
2019-05-02T19:23:32.007Z,23.17
2019-05-02T19:26:02.292Z,24.27
2019-05-02T19:28:38.351Z,22.37
2019-05-02T19:31:06.835Z,22.13
2019-05-02T19:33:37.405Z,19.53
2019-05-02T19:36:03.126Z,20.07
2019-05-02T19:38:32.432Z,18.37
2019-05-02T19:41:05.515Z,17.83
2019-05-02T19:43:27.867Z,14.43
2019-05-02T19:46:16.828Z,17.20
2019-05-02T19:48:43.177Z,12.70
2019-05-02T19:51:18.267Z,12.17
2019-05-02T19:53:42.492Z,11.50
2019-05-02T19:56:09.515Z,12.03
2019-05-02T19:58:41.416Z,13.93
2019-05-02T20:01:05.715Z,10.93
2019-05-02T20:03:32.732Z,13.03
2019-05-02T20:06:02.547Z,10.50
2019-05-02T20:08:28.828Z,10.30
2019-05-02T20:10:58.306Z,10.40
2019-05-02T20:13:28.160Z,11.47
2019-05-02T20:16:04.023Z,9.03
2019-05-02T20:18:28.229Z,8.73
2019-05-02T20:21:22.984Z,10.50
2019-05-02T20:23:40.096Z,9.37
2019-05-02T20:26:09.403Z,11.47
2019-05-02T20:28:35.892Z,9.20
2019-05-02T20:31:03.087Z,8.93
2019-05-02T20:33:30.193Z,8.97
2019-05-02T20:35:57.659Z,8.20
2019-05-02T20:38:24.620Z,11.43
2019-05-02T20:40:52.218Z,6.63
2019-05-02T20:43:19.351Z,7.40
2019-05-02T20:45:46.348Z,9.10
2019-05-02T20:48:13.221Z,6.87
2019-05-02T20:50:40.108Z,5.77
2019-05-02T20:53:06.975Z,6.23
2019-05-02T20:55:33.776Z,6.93
2019-05-02T20:58:02.187Z,5.57
2019-05-02T21:00:32.203Z,6.43
2019-05-02T21:02:59.874Z,7.77
2019-05-02T21:05:32.703Z,7.00
2019-05-02T21:08:17.367Z,8.20
2019-05-02T21:10:45.626Z,6.57
2019-05-02T21:13:13.005Z,6.20
2019-05-02T21:15:39.931Z,7.93
2019-05-02T21:18:06.888Z,8.07
2019-05-02T21:20:34.127Z,7.17
2019-05-02T21:23:02.013Z,8.37
2019-05-02T21:25:29.136Z,7.07
2019-05-02T21:27:56.231Z,7.83
2019-05-02T21:30:25.501Z,7.00
2019-05-02T21:32:52.486Z,8.90
2019-05-02T21:35:19.393Z,8.60
2019-05-02T21:37:46.481Z,7.73
2019-05-02T21:40:13.625Z,7.33
2019-05-02T21:42:42.380Z,7.30
2019-05-02T21:45:10.650Z,7.27
2019-05-02T21:47:37.407Z,6.60
2019-05-02T21:50:12.348Z,5.90
2019-05-02T21:52:44.268Z,6.93
2019-05-02T21:55:36.631Z,8.47
2019-05-02T21:58:03.603Z,8.90
2019-05-02T22:00:59.697Z,7.93
2019-05-02T22:03:26.679Z,6.23
2019-05-02T22:05:53.668Z,7.03
2019-05-02T22:08:21.677Z,7.17
2019-05-02T22:10:48.928Z,7.73
2019-05-02T22:13:15.996Z,7.57
2019-05-02T22:15:42.879Z,6.60
2019-05-02T22:18:09.892Z,7.37
2019-05-02T22:20:36.843Z,8.53
2019-05-02T22:23:03.707Z,6.13
2019-05-02T22:25:32.643Z,8.37
2019-05-02T22:27:59.607Z,6.60
2019-05-02T22:30:26.966Z,5.73
2019-05-02T22:32:54.314Z,6.60
2019-05-02T22:35:21.706Z,6.83
2019-05-02T22:37:51.043Z,6.63
2019-05-02T22:40:18.288Z,5.73
2019-05-02T22:42:45.124Z,7.30
2019-05-02T22:45:12.612Z,6.53
2019-05-02T22:47:39.683Z,8.60
2019-05-02T22:50:07.160Z,7.70
2019-05-02T22:52:34.331Z,7.53
2019-05-02T22:55:02.949Z,6.83
2019-05-02T22:57:31.709Z,8.27
2019-05-02T22:59:58.608Z,7.90
2019-05-02T23:02:25.558Z,9.40
2019-05-02T23:04:52.756Z,8.63
2019-05-02T23:07:22.060Z,7.50
2019-05-02T23:09:49.020Z,8.30
2019-05-02T23:12:16.152Z,11.57
2019-05-02T23:14:43.039Z,10.17
2019-05-02T23:17:10.096Z,9.40
2019-05-02T23:19:36.965Z,9.60
2019-05-02T23:22:04.205Z,11.13
2019-05-02T23:24:52.024Z,11.13
2019-05-02T23:27:25.623Z,9.00
2019-05-02T23:29:52.391Z,10.70
2019-05-02T23:32:19.424Z,9.33
2019-05-02T23:34:46.400Z,11.07
2019-05-02T23:37:13.373Z,10.40
2019-05-02T23:39:41.779Z,12.80
2019-05-02T23:42:08.939Z,14.53
2019-05-02T23:44:35.834Z,13.90
2019-05-02T23:47:02.778Z,15.23
2019-05-02T23:49:29.507Z,14.47
2019-05-02T23:51:56.245Z,12.27
2019-05-02T23:54:23.223Z,14.83
2019-05-02T23:56:50.207Z,14.77
2019-05-02T23:59:16.951Z,14.43
